createdAt,value
2023-02-11T00:01:47.593Z,97448.22
2023-02-11T00:04:14.108Z,97432.94
2023-02-11T00:06:40.617Z,97432.78
2023-02-11T00:09:07.373Z,97429.06
2023-02-11T00:11:34.533Z,97428.38
2023-02-11T00:14:04.247Z,97428.78
2023-02-11T00:16:31.657Z,97439.13
2023-02-11T00:19:03.438Z,97437.53
2023-02-11T00:21:30.105Z,97439.81
2023-02-11T00:23:57.011Z,97429.50
2023-02-11T00:26:26.877Z,97431.09
2023-02-11T00:28:53.877Z,97428.53
2023-02-11T00:31:22.988Z,97430.72
2023-02-11T00:33:50.081Z,97423.63
2023-02-11T00:36:20.763Z,97421.78
2023-02-11T00:38:49.524Z,97415.41
2023-02-11T00:41:17.320Z,97417.44
2023-02-11T00:43:44.673Z,97421.63
2023-02-11T00:46:11.877Z,97413.97
2023-02-11T00:48:38.466Z,97411.38
2023-02-11T00:51:05.277Z,97410.41
2023-02-11T00:53:32.976Z,97405.09
2023-02-11T00:55:59.525Z,97407.53
2023-02-11T00:58:26.104Z,97404.63
2023-02-11T01:00:54.301Z,97388.38
2023-02-11T01:03:20.848Z,97394.41
2023-02-11T01:05:47.545Z,97391.28
2023-02-11T01:08:14.292Z,97386.50
2023-02-11T01:10:40.816Z,97382.31
2023-02-11T01:13:07.331Z,97392.22
2023-02-11T01:15:33.881Z,97381.91
2023-02-11T01:18:00.370Z,97380.72
2023-02-11T01:20:30.603Z,97373.81
2023-02-11T01:22:57.063Z,97383.22
2023-02-11T01:25:23.582Z,97376.75
2023-02-11T01:27:50.047Z,97377.41
2023-02-11T01:30:16.557Z,97388.94
2023-02-11T01:32:43.056Z,97389.19
2023-02-11T01:35:09.702Z,97386.28
2023-02-11T01:37:36.822Z,97396.78
2023-02-11T01:40:06.843Z,97398.94
2023-02-11T01:42:33.785Z,97395.72
2023-02-11T01:45:21.811Z,97395.34
2023-02-11T01:47:48.300Z,97390.84
2023-02-11T01:50:14.957Z,97388.69
2023-02-11T01:52:42.194Z,97385.00
2023-02-11T01:55:12.562Z,97377.47
2023-02-11T01:57:45.538Z,97384.59
2023-02-11T02:00:35.066Z,97376.88
2023-02-11T02:03:19.643Z,97379.91
2023-02-11T02:06:06.203Z,97374.97
2023-02-11T02:08:53.137Z,97368.47
2023-02-11T02:11:19.744Z,97366.59
2023-02-11T02:13:47.332Z,97357.00
2023-02-11T02:16:17.774Z,97362.69
2023-02-11T02:19:16.478Z,97358.41
2023-02-11T02:22:04.329Z,97358.31
2023-02-11T02:24:50.487Z,97355.19
2023-02-11T02:27:55.156Z,97356.38
2023-02-11T02:30:36.599Z,97356.38
2023-02-11T02:33:24.217Z,97366.00
2023-02-11T02:35:58.339Z,97356.34
2023-02-11T02:38:33.842Z,97349.72
2023-02-11T02:41:07.206Z,97344.47
2023-02-11T02:43:36.925Z,97350.53
2023-02-11T02:46:31.040Z,97340.03
2023-02-11T02:48:58.358Z,97349.94
2023-02-11T02:51:42.465Z,97341.25
2023-02-11T02:54:11.801Z,97336.81
2023-02-11T02:56:50.648Z,97340.13
2023-02-11T02:59:41.642Z,97331.53
2023-02-11T03:02:15.050Z,97331.38
2023-02-11T03:05:01.672Z,97338.88
2023-02-11T03:07:48.469Z,97338.28
2023-02-11T03:10:35.130Z,97336.91
2023-02-11T03:13:04.486Z,97332.06
2023-02-11T03:15:37.943Z,97325.81
2023-02-11T03:18:09.465Z,97324.66
2023-02-11T03:20:38.869Z,97317.44
2023-02-11T03:23:18.829Z,97321.97
2023-02-11T03:25:59.668Z,97317.41
2023-02-11T03:28:34.328Z,97326.69
2023-02-11T03:31:19.105Z,97317.50
2023-02-11T03:34:03.592Z,97312.75
2023-02-11T03:36:44.245Z,97310.47
2023-02-11T03:39:16.163Z,97313.38
2023-02-11T03:41:47.289Z,97314.91
2023-02-11T03:44:16.793Z,97314.38
2023-02-11T03:46:50.371Z,97307.84
2023-02-11T03:49:21.740Z,97308.84
2023-02-11T03:51:52.885Z,97305.47
2023-02-11T03:54:27.208Z,97303.88
2023-02-11T03:56:58.742Z,97312.41
2023-02-11T03:59:25.937Z,97298.59
2023-02-11T04:01:52.948Z,97303.31
2023-02-11T04:04:19.549Z,97300.25
2023-02-11T04:06:46.054Z,97296.91
2023-02-11T04:09:14.090Z,97303.28
2023-02-11T04:11:40.613Z,97303.88
2023-02-11T04:14:27.087Z,97297.13
2023-02-11T04:16:53.565Z,97298.06
2023-02-11T04:19:20.096Z,97301.53
2023-02-11T04:21:47.204Z,97293.63
2023-02-11T04:24:13.726Z,97298.06
2023-02-11T04:26:40.200Z,97294.38
2023-02-11T04:29:06.697Z,97300.75
2023-02-11T04:31:33.197Z,97300.16
2023-02-11T04:33:59.789Z,97300.66
2023-02-11T04:36:26.320Z,97297.41
2023-02-11T04:38:52.788Z,97304.94
2023-02-11T04:41:19.279Z,97304.94
2023-02-11T04:43:45.754Z,97309.13
2023-02-11T04:46:12.293Z,97305.34
2023-02-11T04:48:38.846Z,97303.56
2023-02-11T04:51:05.447Z,97296.38
2023-02-11T04:53:32.065Z,97298.72
2023-02-11T04:55:58.553Z,97296.22
2023-02-11T04:58:25.046Z,97297.13
2023-02-11T05:00:51.528Z,97283.50
2023-02-11T05:03:18.285Z,97287.03
2023-02-11T05:05:44.815Z,97285.28
2023-02-11T05:08:11.391Z,97284.28
2023-02-11T05:10:37.985Z,97284.78
2023-02-11T05:13:05.104Z,97292.75
2023-02-11T05:15:31.588Z,97288.59
2023-02-11T05:17:58.073Z,97283.13
2023-02-11T05:20:24.597Z,97284.34
2023-02-11T05:22:51.072Z,97282.34
2023-02-11T05:25:17.673Z,97285.81
2023-02-11T05:27:44.141Z,97273.78
2023-02-11T05:30:11.268Z,97270.41
2023-02-11T05:32:37.919Z,97269.03
2023-02-11T05:35:04.879Z,97259.06
2023-02-11T05:37:31.368Z,97270.22
2023-02-11T05:39:57.907Z,97271.19
2023-02-11T05:42:24.451Z,97275.00
2023-02-11T05:44:50.938Z,97262.91
2023-02-11T05:47:17.406Z,97266.38
2023-02-11T05:49:43.885Z,97263.88
2023-02-11T05:52:10.392Z,97265.41
2023-02-11T05:54:36.892Z,97271.03
2023-02-11T05:57:03.465Z,97272.72
2023-02-11T05:59:29.994Z,97266.91
2023-02-11T06:01:56.480Z,97267.69
2023-02-11T06:04:22.976Z,97273.19
2023-02-11T06:06:49.461Z,97279.13
2023-02-11T06:09:16.137Z,97277.53
2023-02-11T06:11:42.594Z,97271.94
2023-02-11T06:14:09.041Z,97269.97
2023-02-11T06:16:35.546Z,97277.50
2023-02-11T06:19:02.226Z,97279.59
2023-02-11T06:21:42.513Z,97275.34
2023-02-11T06:24:10.609Z,97271.31
2023-02-11T06:26:37.124Z,97267.47
2023-02-11T06:29:03.603Z,97267.31
2023-02-11T06:31:30.384Z,97269.97
2023-02-11T06:33:56.959Z,97278.84
2023-02-11T06:36:23.442Z,97273.63
2023-02-11T06:38:50.813Z,97284.03
2023-02-11T06:41:19.031Z,97282.59
2023-02-11T06:43:46.253Z,97286.38
2023-02-11T06:46:13.344Z,97287.25
2023-02-11T06:48:39.878Z,97292.13
2023-02-11T06:51:11.762Z,97295.44
2023-02-11T06:53:40.869Z,97288.03
2023-02-11T06:56:09.979Z,97297.50
2023-02-11T06:58:37.124Z,97294.81
2023-02-11T07:01:09.377Z,97295.41
2023-02-11T07:03:38.153Z,97295.25
2023-02-11T07:06:06.347Z,97305.06
2023-02-11T07:08:34.353Z,97298.84
2023-02-11T07:11:01.363Z,97300.03
2023-02-11T07:13:28.011Z,97296.53
2023-02-11T07:15:54.542Z,97308.84
2023-02-11T07:18:21.174Z,97317.81
2023-02-11T07:20:47.701Z,97321.22
2023-02-11T07:23:14.172Z,97328.66
2023-02-11T07:25:40.642Z,97323.66
2023-02-11T07:28:07.273Z,97330.38
2023-02-11T07:30:33.779Z,97336.44
2023-02-11T07:33:00.272Z,97335.44
2023-02-11T07:35:26.753Z,97338.28
2023-02-11T07:37:53.247Z,97337.63
2023-02-11T07:40:19.843Z,97341.78
2023-02-11T07:42:46.347Z,97333.88
2023-02-11T07:45:14.803Z,97338.00
2023-02-11T07:47:41.278Z,97345.41
2023-02-11T07:50:07.915Z,97349.03
2023-02-11T07:52:34.454Z,97342.66
2023-02-11T07:55:02.656Z,97344.88
2023-02-11T07:57:31.040Z,97344.91
2023-02-11T07:59:57.513Z,97345.44
2023-02-11T08:02:24.127Z,97344.81
2023-02-11T08:04:50.691Z,97348.75
2023-02-11T08:07:18.177Z,97347.53
2023-02-11T08:09:44.685Z,97350.69
2023-02-11T08:12:11.340Z,97346.00
2023-02-11T08:14:37.949Z,97344.66
2023-02-11T08:17:04.750Z,97351.22
2023-02-11T08:19:33.499Z,97349.47
2023-02-11T08:22:01.601Z,97356.91
2023-02-11T08:24:28.095Z,97345.31
2023-02-11T08:26:54.577Z,97354.22
2023-02-11T08:29:21.097Z,97354.03
2023-02-11T08:31:48.261Z,97359.56
2023-02-11T08:34:15.665Z,97370.53
2023-02-11T08:36:42.904Z,97372.13
2023-02-11T08:39:19.676Z,97366.84
2023-02-11T08:41:50.025Z,97379.72
2023-02-11T08:44:18.387Z,97367.75
2023-02-11T08:46:44.915Z,97370.25
2023-02-11T08:49:11.539Z,97375.47
2023-02-11T08:51:38.153Z,97371.06
2023-02-11T08:54:04.693Z,97375.84
2023-02-11T08:56:31.198Z,97384.78
2023-02-11T08:58:57.681Z,97382.53
2023-02-11T09:01:27.926Z,97387.25
2023-02-11T09:03:55.304Z,97387.06
2023-02-11T09:06:22.973Z,97379.44
2023-02-11T09:08:51.877Z,97384.66
2023-02-11T09:11:20.982Z,97384.22
2023-02-11T09:13:47.703Z,97384.69
2023-02-11T09:16:24.511Z,97396.09
2023-02-11T09:18:51.165Z,97393.66
2023-02-11T09:21:19.103Z,97398.69
2023-02-11T09:23:46.797Z,97399.63
2023-02-11T09:26:17.379Z,97402.22
2023-02-11T09:28:44.133Z,97410.63
2023-02-11T09:31:13.420Z,97401.44
2023-02-11T09:33:42.055Z,97407.97
2023-02-11T09:36:08.952Z,97396.63
2023-02-11T09:38:35.476Z,97397.31
2023-02-11T09:41:02.521Z,97396.19
2023-02-11T09:43:38.722Z,97395.13
2023-02-11T09:46:08.005Z,97409.25
2023-02-11T09:48:41.417Z,97409.91
2023-02-11T09:51:20.484Z,97401.00
2023-02-11T09:54:00.096Z,97407.91
2023-02-11T09:56:28.197Z,97419.38
2023-02-11T09:58:54.894Z,97415.75
2023-02-11T10:01:50.053Z,97425.53
2023-02-11T10:04:51.322Z,97428.66
2023-02-11T10:07:31.431Z,97431.13
2023-02-11T10:10:33.368Z,97431.91
2023-02-11T10:13:22.999Z,97435.03
2023-02-11T10:16:14.745Z,97431.66
2023-02-11T10:19:19.173Z,97425.66
2023-02-11T10:21:59.597Z,97420.94
2023-02-11T10:24:26.693Z,97420.94
2023-02-11T10:26:53.144Z,97421.94
2023-02-11T10:29:55.097Z,97415.91
2023-02-11T10:32:49.296Z,97418.41
2023-02-11T10:35:18.736Z,97412.91
2023-02-11T10:37:45.790Z,97408.28
2023-02-11T10:40:15.331Z,97415.78
2023-02-11T10:42:49.380Z,97410.63
2023-02-11T10:45:22.582Z,97405.56
2023-02-11T10:47:49.095Z,97404.47
2023-02-11T10:50:26.933Z,97396.63
2023-02-11T10:53:12.487Z,97400.69
2023-02-11T10:55:39.281Z,97399.22
2023-02-11T10:58:05.813Z,97392.78
2023-02-11T11:00:36.689Z,97395.50
2023-02-11T11:03:25.320Z,97395.31
2023-02-11T11:06:01.836Z,97386.06
2023-02-11T11:08:47.487Z,97375.94
2023-02-11T11:11:21.054Z,97379.19
2023-02-11T11:13:53.182Z,97370.22
2023-02-11T11:16:28.652Z,97381.50
2023-02-11T11:19:07.435Z,97369.63
2023-02-11T11:21:41.002Z,97373.13
2023-02-11T11:24:19.984Z,97373.06
2023-02-11T11:26:51.161Z,97375.19
2023-02-11T11:29:40.237Z,97377.16
2023-02-11T11:32:20.528Z,97370.44
2023-02-11T11:34:56.492Z,97372.22
2023-02-11T11:37:27.629Z,97357.63
2023-02-11T11:40:14.844Z,97359.13
2023-02-11T11:42:41.628Z,97352.41
2023-02-11T11:45:17.127Z,97352.03
2023-02-11T11:47:54.001Z,97349.34
2023-02-11T11:50:30.499Z,97346.88
2023-02-11T11:53:09.445Z,97345.75
2023-02-11T11:55:45.270Z,97344.34
2023-02-11T11:58:22.304Z,97337.19
2023-02-11T12:01:14.648Z,97323.25
2023-02-11T12:03:50.164Z,97323.03
2023-02-11T12:06:37.081Z,97322.19
2023-02-11T12:09:39.354Z,97323.69
2023-02-11T12:12:21.169Z,97314.84
2023-02-11T12:15:12.220Z,97307.44
2023-02-11T12:17:52.141Z,97296.84
2023-02-11T12:20:53.385Z,97308.91
2023-02-11T12:23:31.757Z,97305.16
2023-02-11T12:26:19.379Z,97305.00
2023-02-11T12:29:23.174Z,97297.16
2023-02-11T12:32:04.920Z,97300.44
2023-02-11T12:34:57.702Z,97299.47
2023-02-11T12:37:47.755Z,97293.31
2023-02-11T12:40:26.414Z,97295.59
2023-02-11T12:43:11.448Z,97284.25
2023-02-11T12:46:13.747Z,97277.53
2023-02-11T12:49:05.400Z,97290.09
2023-02-11T12:51:50.721Z,97269.66
2023-02-11T12:54:44.532Z,97275.44
2023-02-11T12:57:28.221Z,97270.38
2023-02-11T13:00:07.506Z,97260.50
2023-02-11T13:02:40.049Z,97257.09
2023-02-11T13:05:38.872Z,97248.00
2023-02-11T13:08:14.347Z,97246.91
2023-02-11T13:10:47.140Z,97243.91
2023-02-11T13:13:29.792Z,97234.47
2023-02-11T13:16:17.005Z,97234.47
2023-02-11T13:18:56.017Z,97234.78
2023-02-11T13:21:29.834Z,97230.63
2023-02-11T13:24:19.151Z,97227.22
2023-02-11T13:27:13.560Z,97226.69
2023-02-11T13:30:17.665Z,97224.09
2023-02-11T13:32:55.910Z,97219.53
2023-02-11T13:35:43.790Z,97216.88
2023-02-11T13:38:29.307Z,97219.41
2023-02-11T13:41:16.509Z,97212.81
2023-02-11T13:43:44.418Z,97219.03
2023-02-11T13:46:13.681Z,97217.06
2023-02-11T13:48:49.742Z,97220.66
2023-02-11T13:51:34.388Z,97221.44
2023-02-11T13:54:02.622Z,97210.91
2023-02-11T13:56:34.351Z,97214.84
2023-02-11T13:59:04.712Z,97209.47
2023-02-11T14:01:49.272Z,97206.44
2023-02-11T14:04:25.603Z,97200.53
2023-02-11T14:07:21.089Z,97210.03
2023-02-11T14:09:47.581Z,97207.59
2023-02-11T14:12:31.091Z,97194.13
2023-02-11T14:15:02.979Z,97195.59
2023-02-11T14:17:35.313Z,97195.44
2023-02-11T14:20:23.637Z,97192.03
2023-02-11T14:22:52.936Z,97196.69
2023-02-11T14:25:25.176Z,97187.50
2023-02-11T14:28:00.973Z,97194.22
2023-02-11T14:30:45.735Z,97191.03
2023-02-11T14:33:31.141Z,97198.28
2023-02-11T14:36:24.046Z,97195.66
2023-02-11T14:39:21.404Z,97193.34
2023-02-11T14:41:49.865Z,97198.59
2023-02-11T14:44:30.093Z,97201.13
2023-02-11T14:47:00.013Z,97201.22
2023-02-11T14:49:26.461Z,97193.88
2023-02-11T14:52:03.759Z,97186.72
2023-02-11T14:54:31.023Z,97185.66
2023-02-11T14:57:20.204Z,97187.72
2023-02-11T14:59:59.704Z,97174.44
2023-02-11T15:02:32.996Z,97182.00
2023-02-11T15:05:21.643Z,97171.00
2023-02-11T15:07:52.456Z,97178.47
2023-02-11T15:10:30.599Z,97171.88
2023-02-11T15:12:59.798Z,97176.69
2023-02-11T15:15:28.221Z,97175.97
2023-02-11T15:18:00.978Z,97175.84
2023-02-11T15:20:32.098Z,97175.25
2023-02-11T15:23:08.640Z,97173.06
2023-02-11T15:25:42.726Z,97175.72
2023-02-11T15:28:22.690Z,97164.84
2023-02-11T15:31:00.156Z,97166.13
2023-02-11T15:33:26.872Z,97167.78
2023-02-11T15:35:53.481Z,97160.44
2023-02-11T15:38:20.546Z,97167.00
2023-02-11T15:41:02.233Z,97157.25
2023-02-11T15:43:49.945Z,97160.25
2023-02-11T15:46:23.131Z,97156.22
2023-02-11T15:48:54.475Z,97150.78
2023-02-11T15:51:27.381Z,97152.44
2023-02-11T15:53:57.448Z,97147.66
2023-02-11T15:56:35.080Z,97155.28
2023-02-11T15:59:17.091Z,97162.19
2023-02-11T16:01:45.113Z,97155.69
2023-02-11T16:04:27.068Z,97160.50
2023-02-11T16:06:55.294Z,97152.81
2023-02-11T16:09:36.601Z,97155.03
2023-02-11T16:12:23.032Z,97157.25
2023-02-11T16:14:49.613Z,97147.50
2023-02-11T16:17:27.817Z,97157.34
2023-02-11T16:19:55.508Z,97153.88
2023-02-11T16:22:29.282Z,97153.19
2023-02-11T16:24:59.735Z,97151.38
2023-02-11T16:27:39.484Z,97146.56
2023-02-11T16:30:23.668Z,97154.28
2023-02-11T16:32:52.248Z,97160.22
2023-02-11T16:35:18.742Z,97165.25
2023-02-11T16:37:45.218Z,97167.22
2023-02-11T16:40:12.999Z,97164.97
2023-02-11T16:42:39.615Z,97168.53
2023-02-11T16:45:06.741Z,97176.00
2023-02-11T16:47:36.153Z,97177.44
2023-02-11T16:50:03.026Z,97175.56
2023-02-11T16:52:29.943Z,97166.91
2023-02-11T16:54:56.512Z,97173.59
2023-02-11T16:57:26.479Z,97171.00
2023-02-11T16:59:54.653Z,97182.13
2023-02-11T17:02:26.723Z,97182.91
2023-02-11T17:04:54.811Z,97170.06
2023-02-11T17:07:21.774Z,97187.44
2023-02-11T17:09:48.254Z,97187.09
2023-02-11T17:12:14.737Z,97185.63
2023-02-11T17:14:41.229Z,97188.63
2023-02-11T17:17:08.955Z,97191.06
2023-02-11T17:19:35.444Z,97187.47
2023-02-11T17:22:02.669Z,97195.88
2023-02-11T17:24:29.158Z,97187.75
2023-02-11T17:26:55.711Z,97198.03
2023-02-11T17:29:25.840Z,97190.84
2023-02-11T17:31:52.930Z,97193.84
2023-02-11T17:34:21.144Z,97198.97
2023-02-11T17:36:48.110Z,97198.22
2023-02-11T17:39:16.877Z,97202.16
2023-02-11T17:41:43.355Z,97210.59
2023-02-11T17:44:11.070Z,97213.44
2023-02-11T17:46:37.796Z,97212.03
2023-02-11T17:49:04.954Z,97212.25
2023-02-11T17:51:34.787Z,97215.25
2023-02-11T17:54:04.465Z,97212.66
2023-02-11T17:56:35.521Z,97218.13
2023-02-11T17:59:02.997Z,97226.91
2023-02-11T18:01:31.388Z,97230.31
2023-02-11T18:03:57.964Z,97227.69
2023-02-11T18:06:26.124Z,97235.91
2023-02-11T18:08:55.615Z,97234.44
2023-02-11T18:11:24.056Z,97236.09
2023-02-11T18:13:51.354Z,97234.66
2023-02-11T18:16:17.931Z,97237.19
2023-02-11T18:18:44.888Z,97238.47
2023-02-11T18:21:14.970Z,97246.66
2023-02-11T18:23:41.689Z,97240.28
2023-02-11T18:26:09.685Z,97243.75
2023-02-11T18:28:36.666Z,97248.59
2023-02-11T18:31:03.733Z,97246.28
2023-02-11T18:33:30.858Z,97247.56
2023-02-11T18:35:57.520Z,97246.38
2023-02-11T18:38:24.686Z,97250.31
2023-02-11T18:40:51.520Z,97246.38
2023-02-11T18:43:20.040Z,97252.22
2023-02-11T18:45:48.534Z,97252.66
2023-02-11T18:48:16.283Z,97253.56
2023-02-11T18:50:44.968Z,97253.91
2023-02-11T18:53:13.485Z,97256.59
2023-02-11T18:55:41.842Z,97259.34
2023-02-11T18:58:08.594Z,97258.09
2023-02-11T19:00:36.501Z,97254.75
2023-02-11T19:03:03.171Z,97261.34
2023-02-11T19:05:30.186Z,97265.22
2023-02-11T19:07:56.674Z,97268.16
2023-02-11T19:10:23.774Z,97264.81
2023-02-11T19:12:53.683Z,97280.31
2023-02-11T19:15:20.150Z,97280.13
2023-02-11T19:17:46.634Z,97277.03
2023-02-11T19:20:13.166Z,97277.03
2023-02-11T19:22:39.678Z,97270.88
2023-02-11T19:25:06.716Z,97279.25
2023-02-11T19:27:33.918Z,97272.44
2023-02-11T19:30:00.491Z,97275.69
2023-02-11T19:32:29.812Z,97276.78
2023-02-11T19:34:56.524Z,97271.88
2023-02-11T19:37:23.249Z,97278.59
2023-02-11T19:39:49.817Z,97278.81
2023-02-11T19:42:18.671Z,97284.03
2023-02-11T19:44:45.153Z,97282.56
2023-02-11T19:47:11.759Z,97281.91
2023-02-11T19:49:38.401Z,97289.25
2023-02-11T19:52:04.901Z,97281.72
2023-02-11T19:54:31.375Z,97279.72
2023-02-11T19:56:58.182Z,97277.41
2023-02-11T19:59:24.873Z,97292.25
2023-02-11T20:01:51.494Z,97279.28
2023-02-11T20:04:18.053Z,97283.56
2023-02-11T20:06:44.790Z,97286.69
2023-02-11T20:09:14.362Z,97276.88
2023-02-11T20:11:41.764Z,97277.25
2023-02-11T20:14:11.731Z,97281.03
2023-02-11T20:16:48.070Z,97279.34
2023-02-11T20:19:18.161Z,97274.75
2023-02-11T20:21:47.760Z,97277.13
2023-02-11T20:24:16.112Z,97279.75
2023-02-11T20:26:42.690Z,97274.75
2023-02-11T20:29:09.551Z,97266.47
2023-02-11T20:31:36.482Z,97271.69
2023-02-11T20:34:03.169Z,97265.69
2023-02-11T20:36:33.037Z,97262.53
2023-02-11T20:39:00.554Z,97264.00
2023-02-11T20:41:30.401Z,97262.31
2023-02-11T20:44:02.044Z,97260.88
2023-02-11T20:46:31.116Z,97264.22
2023-02-11T20:48:57.654Z,97264.22
2023-02-11T20:51:28.092Z,97265.53
2023-02-11T20:53:54.845Z,97261.25
2023-02-11T20:56:26.337Z,97264.22
2023-02-11T20:58:52.908Z,97266.28
2023-02-11T21:01:29.141Z,97275.44
2023-02-11T21:04:07.879Z,97268.34
2023-02-11T21:06:37.807Z,97267.63
2023-02-11T21:09:07.047Z,97269.31
2023-02-11T21:11:34.053Z,97260.91
2023-02-11T21:14:00.832Z,97258.50
2023-02-11T21:16:27.718Z,97264.97
2023-02-11T21:18:54.889Z,97265.59
2023-02-11T21:21:21.522Z,97266.50
2023-02-11T21:23:48.020Z,97267.44
2023-02-11T21:26:15.525Z,97261.31
2023-02-11T21:28:42.146Z,97258.88
2023-02-11T21:31:09.047Z,97264.00
2023-02-11T21:33:35.932Z,97264.28
2023-02-11T21:36:04.524Z,97257.28
2023-02-11T21:38:31.402Z,97267.06
2023-02-11T21:41:03.558Z,97260.34
2023-02-11T21:43:30.101Z,97260.81
2023-02-11T21:45:57.356Z,97249.53
2023-02-11T21:48:24.523Z,97255.13
2023-02-11T21:50:51.302Z,97251.19
2023-02-11T21:53:17.788Z,97256.22
2023-02-11T21:55:44.265Z,97263.13
2023-02-11T21:58:12.874Z,97259.41
2023-02-11T22:00:39.935Z,97261.22
2023-02-11T22:03:06.428Z,97267.00
2023-02-11T22:05:32.891Z,97266.44
2023-02-11T22:07:59.377Z,97269.78
2023-02-11T22:10:26.039Z,97275.78
2023-02-11T22:12:52.556Z,97273.22
2023-02-11T22:15:19.175Z,97267.00
2023-02-11T22:17:45.777Z,97271.28
2023-02-11T22:20:12.300Z,97275.19
2023-02-11T22:22:38.778Z,97264.94
2023-02-11T22:25:05.791Z,97264.38
2023-02-11T22:27:34.565Z,97273.69
2023-02-11T22:30:01.051Z,97269.63
2023-02-11T22:32:27.546Z,97271.47
2023-02-11T22:34:54.028Z,97268.44
2023-02-11T22:37:20.585Z,97266.78
2023-02-11T22:39:47.146Z,97272.78
2023-02-11T22:42:13.620Z,97270.34
2023-02-11T22:44:40.117Z,97274.34
2023-02-11T22:47:06.645Z,97267.81
2023-02-11T22:49:33.145Z,97271.81
2023-02-11T22:51:59.679Z,97270.41
2023-02-11T22:54:26.415Z,97273.50
2023-02-11T22:56:53.192Z,97271.91
2023-02-11T22:59:21.103Z,97269.59
2023-02-11T23:01:48.037Z,97271.19
2023-02-11T23:04:16.309Z,97268.66
2023-02-11T23:06:43.267Z,97272.38
2023-02-11T23:09:11.137Z,97270.25
2023-02-11T23:11:37.892Z,97270.41
2023-02-11T23:14:04.466Z,97269.59
2023-02-11T23:16:33.587Z,97272.38
2023-02-11T23:19:02.324Z,97269.59
2023-02-11T23:21:31.765Z,97267.69
2023-02-11T23:24:04.622Z,97268.84
2023-02-11T23:26:31.791Z,97262.03
2023-02-11T23:28:59.524Z,97262.59
2023-02-11T23:31:30.332Z,97265.50
2023-02-11T23:33:56.905Z,97267.34
2023-02-11T23:36:23.731Z,97267.91
2023-02-11T23:38:50.876Z,97259.78
2023-02-11T23:41:17.790Z,97255.78
2023-02-11T23:43:44.359Z,97254.84
2023-02-11T23:46:11.454Z,97258.03
2023-02-11T23:48:38.047Z,97261.09
2023-02-11T23:51:04.832Z,97258.19
2023-02-11T23:53:31.393Z,97255.06
2023-02-11T23:55:57.930Z,97254.13
2023-02-11T23:58:24.535Z,97257.19
